Time;durP1;ratioP1;P1;durP2;ratioP2;P2;SDS_P1;SDS_P2;PMS_P1;PMS_P2;Temp;Humidity;BMP_temperature;BMP_pressure;BME280_temperature;BME280_humidity;BME280_pressure;Samples;Min_cycle;Max_cycle;Signal;HPM_P1;HPM_P2
2022/04/13 00:02:08;;;;;;;6.47;3.33;;;;;;;;;;4946699;29;20215;-84
2022/04/13 00:05:12;;;;;;;9.90;3.87;;;;;;;;;;4957539;28;20207;-84
2022/04/13 00:08:17;;;;;;;8.00;3.83;;;;;;;;;;4957841;29;20183;-85
2022/04/13 00:11:22;;;;;;;6.37;3.23;;;;;;;;;;4957668;28;20215;-84
2022/04/13 00:14:26;;;;;;;6.03;3.30;;;;;;;;;;4957855;29;20184;-84
2022/04/13 00:17:32;;;;;;;6.93;3.40;;;;;;;;;;4947151;29;20184;-85
2022/04/13 00:20:37;;;;;;;6.07;3.40;;;;;;;;;;4959048;28;20207;-85
2022/04/13 00:23:41;;;;;;;6.17;3.50;;;;;;;;;;4947284;29;20199;-85
2022/04/13 00:26:46;;;;;;;5.63;3.83;;;;;;;;;;4947168;29;20191;-84
2022/04/13 00:29:52;;;;;;;5.70;3.80;;;;;;;;;;4957686;29;20188;-85
2022/04/13 00:32:56;;;;;;;7.63;3.30;;;;;;;;;;4957260;28;20219;-84
2022/04/13 00:36:00;;;;;;;5.30;3.53;;;;;;;;;;4957291;29;20187;-85
2022/04/13 00:39:05;;;;;;;5.67;3.63;;;;;;;;;;4969232;29;20183;-84
2022/04/13 00:42:09;;;;;;;6.77;4.53;;;;;;;;;;4955348;29;20227;-86
2022/04/13 00:45:14;;;;;;;6.53;3.73;;;;;;;;;;4957852;29;20655;-84
2022/04/13 00:48:31;;;;;;;7.97;4.07;;;;;;;;;;4946486;29;20187;-86
2022/04/13 00:51:35;;;;;;;6.60;4.00;;;;;;;;;;4957884;28;20241;-86
2022/04/13 00:54:45;;;;;;;5.10;3.30;;;;;;;;;;4957898;29;20183;-85
2022/04/13 00:57:51;;;;;;;6.73;3.83;;;;;;;;;;4946373;29;20183;-85
2022/04/13 01:00:57;;;;;;;5.33;3.60;;;;;;;;;;4957665;28;20231;-86
2022/04/13 01:04:04;;;;;;;5.73;3.50;;;;;;;;;;4946810;29;20187;-85
2022/04/13 01:07:09;;;;;;;4.80;3.20;;;;;;;;;;4957414;29;20184;-84
2022/04/13 01:10:15;;;;;;;9.63;3.83;;;;;;;;;;4957683;28;20651;-84
2022/04/13 01:13:20;;;;;;;4.40;3.27;;;;;;;;;;4957166;29;20184;-84
2022/04/13 01:16:25;;;;;;;5.60;3.70;;;;;;;;;;4946056;29;20184;-84
2022/04/13 01:19:31;;;;;;;6.10;3.30;;;;;;;;;;4946262;29;20651;-84
2022/04/13 01:22:37;;;;;;;4.20;3.33;;;;;;;;;;4945417;29;20211;-85
2022/04/13 01:25:49;;;;;;;5.57;3.33;;;;;;;;;;4956806;29;20176;-85
2022/04/13 01:28:53;;;;;;;5.53;3.57;;;;;;;;;;4945813;29;20187;-85
2022/04/13 01:31:58;;;;;;;5.40;3.43;;;;;;;;;;4956557;28;20215;-84
2022/04/13 01:35:03;;;;;;;7.47;4.00;;;;;;;;;;4956969;29;20187;-85
2022/04/13 01:38:07;;;;;;;6.30;3.90;;;;;;;;;;4956981;29;20639;-84
2022/04/13 01:41:12;;;;;;;5.63;3.60;;;;;;;;;;4957265;28;20231;-85
2022/04/13 01:44:16;;;;;;;6.23;3.77;;;;;;;;;;4957762;29;20185;-85
2022/04/13 01:47:20;;;;;;;6.60;3.57;;;;;;;;;;4935071;29;20184;-85
2022/04/13 01:50:24;;;;;;;8.80;3.77;;;;;;;;;;4946293;29;20187;-85
2022/04/13 01:53:29;;;;;;;8.17;3.33;;;;;;;;;;4957101;28;20187;-84
2022/04/13 01:56:33;;;;;;;6.17;4.13;;;;;;;;;;4957262;29;20184;-86
2022/04/13 01:59:37;;;;;;;5.73;3.63;;;;;;;;;;4956896;29;20183;-85
2022/04/13 02:02:41;;;;;;;7.10;3.83;;;;;;;;;;4945037;29;20231;-84
2022/04/13 02:05:46;;;;;;;7.27;4.73;;;;;;;;;;4956513;29;20188;-86
2022/04/13 02:08:50;;;;;;;6.70;3.70;;;;;;;;;;4956477;29;20199;-84
2022/04/13 02:11:54;;;;;;;6.63;3.47;;;;;;;;;;4956325;28;20555;-85
2022/04/13 02:14:58;;;;;;;5.63;3.77;;;;;;;;;;4956866;29;20176;-84
2022/04/13 02:18:02;;;;;;;5.03;3.53;;;;;;;;;;4956341;29;20184;-84
2022/04/13 02:21:06;;;;;;;6.23;4.00;;;;;;;;;;4956318;28;20235;-85
2022/04/13 02:24:10;;;;;;;5.77;4.03;;;;;;;;;;4945399;29;20627;-84
2022/04/13 02:27:15;;;;;;;9.67;3.80;;;;;;;;;;4956051;29;20179;-84
2022/04/13 02:30:18;;;;;;;8.83;4.10;;;;;;;;;;4955968;29;20184;-84
2022/04/13 02:33:23;;;;;;;6.17;3.90;;;;;;;;;;4955998;29;20179;-85
2022/04/13 02:36:28;;;;;;;8.70;3.93;;;;;;;;;;4955745;29;20183;-84
2022/04/13 02:39:32;;;;;;;9.40;4.13;;;;;;;;;;4955734;29;20543;-84
2022/04/13 02:42:36;;;;;;;6.87;4.23;;;;;;;;;;4955677;28;20234;-84
2022/04/13 02:45:40;;;;;;;6.87;4.37;;;;;;;;;;4944646;29;20627;-84
2022/04/13 02:48:45;;;;;;;5.80;4.10;;;;;;;;;;4944626;29;20188;-84
2022/04/13 02:51:49;;;;;;;7.33;4.27;;;;;;;;;;4944525;29;20219;-84
2022/04/13 02:54:57;;;;;;;8.80;4.63;;;;;;;;;;4955541;29;20175;-84
2022/04/13 02:58:01;;;;;;;6.90;4.27;;;;;;;;;;4955384;29;20180;-84
2022/04/13 03:01:06;;;;;;;5.90;3.80;;;;;;;;;;4954791;28;20235;-84
2022/04/13 03:04:10;;;;;;;7.83;4.47;;;;;;;;;;4955484;29;20187;-84
2022/04/13 03:07:16;;;;;;;6.10;4.70;;;;;;;;;;4955349;29;20187;-85
2022/04/13 03:10:20;;;;;;;7.73;3.90;;;;;;;;;;4955181;28;20663;-84
2022/04/13 03:13:24;;;;;;;5.73;4.27;;;;;;;;;;4955585;28;20184;-84
2022/04/13 03:16:28;;;;;;;6.53;4.50;;;;;;;;;;4954485;29;20213;-84
2022/04/13 03:19:32;;;;;;;6.17;4.13;;;;;;;;;;4955531;29;20528;-84
2022/04/13 03:22:36;;;;;;;5.27;3.60;;;;;;;;;;4955087;28;20227;-86
2022/04/13 03:25:40;;;;;;;8.00;4.50;;;;;;;;;;4954804;29;20199;-85
2022/04/13 03:28:45;;;;;;;7.77;4.57;;;;;;;;;;4955183;29;20184;-85
2022/04/13 03:31:49;;;;;;;7.07;4.97;;;;;;;;;;4932780;29;20211;-84
2022/04/13 03:34:53;;;;;;;5.60;3.70;;;;;;;;;;4932721;29;20183;-85
2022/04/13 03:37:57;;;;;;;11.73;4.80;;;;;;;;;;4955072;29;20515;-85
2022/04/13 03:41:04;;;;;;;6.27;4.37;;;;;;;;;;4935726;29;20219;-85
2022/04/13 03:44:09;;;;;;;5.80;4.00;;;;;;;;;;4935526;29;20184;-85
2022/04/13 03:47:13;;;;;;;5.90;4.30;;;;;;;;;;4936132;29;20199;-85
2022/04/13 03:50:17;;;;;;;5.87;4.10;;;;;;;;;;4939224;29;20204;-85
2022/04/13 03:53:21;;;;;;;7.90;4.40;;;;;;;;;;4928511;29;20180;-85
2022/04/13 03:56:26;;;;;;;7.30;4.67;;;;;;;;;;4950643;29;20188;-85
2022/04/13 03:59:30;;;;;;;4.50;3.60;;;;;;;;;;4928643;29;20176;-85
2022/04/13 04:02:38;;;;;;;6.27;3.80;;;;;;;;;;4950082;28;20235;-86
2022/04/13 04:05:42;;;;;;;6.10;3.70;;;;;;;;;;4939370;29;20516;-85
2022/04/13 04:08:46;;;;;;;8.27;3.83;;;;;;;;;;4941117;29;20184;-85
2022/04/13 04:11:50;;;;;;;4.73;3.60;;;;;;;;;;4940251;29;20220;-85
2022/04/13 04:15:01;;;;;;;7.03;4.20;;;;;;;;;;4940479;29;20204;-85
2022/04/13 04:18:07;;;;;;;5.03;4.17;;;;;;;;;;4940025;29;20196;-85
2022/04/13 04:21:11;;;;;;;6.27;4.07;;;;;;;;;;4939796;29;20223;-85
2022/04/13 04:24:15;;;;;;;5.43;4.27;;;;;;;;;;4940896;29;20247;-85
2022/04/13 04:27:19;;;;;;;9.60;4.80;;;;;;;;;;4940343;29;20192;-85
2022/04/13 04:30:24;;;;;;;7.10;4.60;;;;;;;;;;4951900;29;20181;-85
2022/04/13 04:33:28;;;;;;;6.73;4.73;;;;;;;;;;4939776;29;20199;-85
2022/04/13 04:36:32;;;;;;;8.10;4.47;;;;;;;;;;4939756;29;20200;-85
2022/04/13 04:39:36;;;;;;;9.97;4.50;;;;;;;;;;4940173;29;20660;-86
2022/04/13 04:42:45;;;;;;;7.67;4.90;;;;;;;;;;4939834;29;20224;-85
2022/04/13 04:45:49;;;;;;;6.73;4.17;;;;;;;;;;4939893;29;20185;-85
2022/04/13 04:48:53;;;;;;;6.30;3.83;;;;;;;;;;4940267;29;20188;-85
2022/04/13 04:51:57;;;;;;;7.00;4.30;;;;;;;;;;4939428;29;20208;-85
2022/04/13 04:55:02;;;;;;;15.40;4.47;;;;;;;;;;4950206;29;20176;-85
2022/04/13 04:58:09;;;;;;;14.30;4.43;;;;;;;;;;4927447;29;20200;-85
2022/04/13 05:01:13;;;;;;;5.63;4.20;;;;;;;;;;4937994;29;20711;-85
2022/04/13 05:04:17;;;;;;;6.03;4.00;;;;;;;;;;4939099;29;20180;-85
2022/04/13 05:07:21;;;;;;;5.77;4.10;;;;;;;;;;4938754;29;20184;-85
2022/04/13 05:10:26;;;;;;;6.73;3.97;;;;;;;;;;4939059;29;20188;-85
2022/04/13 05:13:30;;;;;;;6.33;4.27;;;;;;;;;;4938867;29;20180;-85
2022/04/13 05:16:34;;;;;;;6.00;4.17;;;;;;;;;;4943202;29;20188;-86
2022/04/13 05:19:38;;;;;;;7.80;4.03;;;;;;;;;;4946503;29;20184;-86
2022/04/13 05:22:43;;;;;;;5.90;4.17;;;;;;;;;;4944814;29;20223;-87
2022/04/13 05:25:47;;;;;;;6.57;4.40;;;;;;;;;;4944473;29;20671;-86
2022/04/13 05:28:51;;;;;;;8.67;4.93;;;;;;;;;;4934031;29;20188;-86
2022/04/13 05:31:55;;;;;;;11.40;5.50;;;;;;;;;;4944172;29;20212;-86
2022/04/13 05:35:01;;;;;;;11.17;6.27;;;;;;;;;;4933042;29;20510;-86
2022/04/13 05:38:05;;;;;;;9.50;7.30;;;;;;;;;;4955671;29;20188;-87
2022/04/13 05:41:09;;;;;;;23.83;12.50;;;;;;;;;;4952823;29;20211;-86
2022/04/13 05:44:13;;;;;;;24.83;14.40;;;;;;;;;;4928373;29;20184;-86
2022/04/13 05:47:17;;;;;;;18.20;12.63;;;;;;;;;;4948878;29;20187;-85
2022/04/13 05:50:21;;;;;;;21.23;13.27;;;;;;;;;;4927899;29;20193;-85
2022/04/13 05:53:26;;;;;;;24.23;12.10;;;;;;;;;;4938637;29;20193;-87
2022/04/13 05:56:30;;;;;;;24.07;14.47;;;;;;;;;;4948944;29;20180;-87
2022/04/13 05:59:35;;;;;;;12.57;9.40;;;;;;;;;;4949649;29;20187;-87
2022/04/13 06:02:41;;;;;;;10.60;7.77;;;;;;;;;;4927330;29;20236;-85
2022/04/13 06:05:46;;;;;;;10.23;7.00;;;;;;;;;;4936670;29;20180;-85
2022/04/13 06:08:50;;;;;;;12.70;6.97;;;;;;;;;;4936318;29;20188;-85
2022/04/13 06:11:54;;;;;;;13.23;7.67;;;;;;;;;;4939014;29;20211;-87
2022/04/13 06:15:04;;;;;;;13.73;7.17;;;;;;;;;;4926052;29;20631;-85
2022/04/13 06:18:08;;;;;;;12.90;6.70;;;;;;;;;;4937000;29;20187;-85
2022/04/13 06:21:12;;;;;;;10.00;6.50;;;;;;;;;;4936694;29;20223;-85
2022/04/13 06:24:17;;;;;;;12.20;6.37;;;;;;;;;;4947550;29;20192;-86
2022/04/13 06:27:21;;;;;;;11.23;5.77;;;;;;;;;;4947034;29;20184;-85
2022/04/13 06:30:25;;;;;;;8.77;5.83;;;;;;;;;;4936198;29;20188;-85
2022/04/13 06:33:29;;;;;;;9.97;5.27;;;;;;;;;;4936011;29;20180;-85
2022/04/13 06:36:33;;;;;;;8.70;5.17;;;;;;;;;;4936156;29;20524;-85
2022/04/13 06:39:37;;;;;;;7.70;5.10;;;;;;;;;;4925362;29;20184;-86
2022/04/13 06:42:42;;;;;;;8.70;5.10;;;;;;;;;;4936489;29;20231;-86
2022/04/13 06:45:46;;;;;;;11.77;5.20;;;;;;;;;;4936093;29;20184;-86
2022/04/13 06:48:50;;;;;;;10.13;5.80;;;;;;;;;;4936152;29;20184;-85
2022/04/13 06:51:54;;;;;;;9.10;5.87;;;;;;;;;;4925705;29;20556;-86
2022/04/13 06:54:58;;;;;;;8.30;4.40;;;;;;;;;;4925573;29;20184;-86
2022/04/13 06:58:02;;;;;;;6.17;4.27;;;;;;;;;;4937573;29;20180;-87
2022/04/13 07:01:08;;;;;;;9.30;4.93;;;;;;;;;;4965949;22;20253;-85
2022/04/13 07:04:12;;;;;;;9.10;6.53;;;;;;;;;;4963605;28;20696;-86
2022/04/13 07:07:16;;;;;;;5.77;4.40;;;;;;;;;;4966000;28;20507;-85
2022/04/13 07:10:21;;;;;;;5.47;4.30;;;;;;;;;;4963681;28;20175;-85
2022/04/13 07:13:25;;;;;;;5.97;4.37;;;;;;;;;;4934509;29;20191;-86
2022/04/13 07:16:29;;;;;;;5.43;4.27;;;;;;;;;;4943998;29;20203;-86
2022/04/13 07:19:33;;;;;;;9.10;4.70;;;;;;;;;;4944026;29;20199;-86
2022/04/13 07:22:51;;;;;;;6.03;4.63;;;;;;;;;;4934588;29;20223;-86
2022/04/13 07:25:55;;;;;;;5.70;4.03;;;;;;;;;;4937238;29;20191;-85
2022/04/13 07:28:59;;;;;;;6.70;4.10;;;;;;;;;;4939369;29;20179;-86
2022/04/13 07:32:04;;;;;;;5.63;4.03;;;;;;;;;;4952079;29;20218;-86
2022/04/13 07:35:08;;;;;;;7.70;4.03;;;;;;;;;;4951594;29;20662;-86
2022/04/13 07:38:13;;;;;;;7.87;4.10;;;;;;;;;;4937846;29;20184;-86
2022/04/13 07:41:17;;;;;;;10.43;4.20;;;;;;;;;;4948092;28;20215;-86
2022/04/13 07:44:21;;;;;;;5.87;4.00;;;;;;;;;;4937303;29;20219;-86
2022/04/13 07:47:26;;;;;;;10.33;4.87;;;;;;;;;;4936840;29;20203;-86
2022/04/13 07:50:31;;;;;;;4.80;3.73;;;;;;;;;;4936742;29;20199;-86
2022/04/13 07:53:34;;;;;;;7.80;4.20;;;;;;;;;;4958426;29;20199;-86
2022/04/13 07:56:40;;;;;;;7.57;4.63;;;;;;;;;;4936072;29;20203;-86
2022/04/13 07:59:44;;;;;;;6.90;4.33;;;;;;;;;;4936356;29;20192;-86
2022/04/13 08:02:48;;;;;;;7.50;4.80;;;;;;;;;;4946874;29;20235;-86
2022/04/13 08:05:52;;;;;;;5.57;4.10;;;;;;;;;;4947101;29;20183;-86
2022/04/13 08:08:57;;;;;;;6.60;4.27;;;;;;;;;;4936127;29;20187;-86
2022/04/13 08:12:01;;;;;;;6.90;4.23;;;;;;;;;;4957789;28;20219;-86
2022/04/13 08:15:06;;;;;;;5.17;4.00;;;;;;;;;;4935979;29;20180;-86
2022/04/13 08:18:10;;;;;;;6.77;4.33;;;;;;;;;;4935361;29;20528;-87
2022/04/13 08:21:15;;;;;;;7.53;4.30;;;;;;;;;;4946317;28;20638;-86
2022/04/13 08:24:18;;;;;;;6.00;4.10;;;;;;;;;;4957247;29;20231;-86
2022/04/13 08:27:22;;;;;;;6.37;4.27;;;;;;;;;;4946079;29;20187;-87
2022/04/13 08:30:26;;;;;;;6.53;4.50;;;;;;;;;;4935480;29;20187;-86
2022/04/13 08:33:31;;;;;;;5.57;4.03;;;;;;;;;;4934783;29;20642;-87
2022/04/13 08:36:35;;;;;;;7.23;4.00;;;;;;;;;;4935099;29;20520;-86
2022/04/13 08:39:40;;;;;;;6.40;3.77;;;;;;;;;;4935152;29;20179;-86
2022/04/13 08:42:46;;;;;;;8.37;4.00;;;;;;;;;;4935032;29;20564;-86
2022/04/13 08:45:56;;;;;;;6.70;4.10;;;;;;;;;;4945837;29;20176;-86
2022/04/13 08:49:04;;;;;;;5.07;3.90;;;;;;;;;;4934803;29;20180;-86
2022/04/13 08:52:09;;;;;;;6.50;4.17;;;;;;;;;;4934959;29;20552;-86
2022/04/13 08:55:16;;;;;;;6.57;4.10;;;;;;;;;;4945533;29;20183;-86
2022/04/13 08:58:29;;;;;;;4.97;3.97;;;;;;;;;;4945477;29;20183;-87
2022/04/13 09:02:04;;;;;;;8.77;3.87;;;;;;;;;;4934388;28;20219;-86
2022/04/13 09:05:10;;;;;;;6.33;3.93;;;;;;;;;;4957363;29;20184;-86
2022/04/13 09:08:18;;;;;;;6.37;4.07;;;;;;;;;;4934424;29;20175;-87
2022/04/13 09:11:22;;;;;;;5.73;4.50;;;;;;;;;;4945039;28;20262;-87
2022/04/13 09:14:28;;;;;;;8.13;4.00;;;;;;;;;;4934628;29;20180;-86
2022/04/13 09:17:32;;;;;;;9.23;6.97;;;;;;;;;;4944954;29;20183;-87
2022/04/13 09:20:37;;;;;;;6.43;3.63;;;;;;;;;;4934496;29;20184;-87
2022/04/13 09:23:41;;;;;;;8.50;4.20;;;;;;;;;;4934030;29;20227;-86
2022/04/13 09:26:46;;;;;;;5.17;4.23;;;;;;;;;;4955939;29;20203;-86
2022/04/13 09:29:51;;;;;;;7.53;3.67;;;;;;;;;;4955883;29;20180;-87
2022/04/13 09:32:55;;;;;;;5.07;3.40;;;;;;;;;;4933717;29;20219;-86
2022/04/13 09:35:59;;;;;;;6.23;3.43;;;;;;;;;;4934251;29;20516;-86
2022/04/13 09:39:04;;;;;;;7.73;3.90;;;;;;;;;;4944453;29;20199;-86
2022/04/13 09:42:12;;;;;;;6.73;4.00;;;;;;;;;;4933649;29;20391;-86
2022/04/13 09:45:16;;;;;;;5.10;3.53;;;;;;;;;;4933285;29;20180;-86
2022/04/13 09:48:22;;;;;;;8.20;5.77;;;;;;;;;;4955269;29;20185;-86
2022/04/13 09:51:36;;;;;;;5.20;3.93;;;;;;;;;;4955412;28;20220;-87
2022/04/13 09:54:48;;;;;;;8.80;4.20;;;;;;;;;;4944496;29;20176;-87
2022/04/13 09:58:12;;;;;;;7.47;4.03;;;;;;;;;;4944062;29;20199;-87
2022/04/13 10:01:16;;;;;;;5.67;4.30;;;;;;;;;;4944151;28;20688;-86
2022/04/13 10:04:24;;;;;;;5.47;3.40;;;;;;;;;;4944147;29;20546;-87
2022/04/13 10:07:28;;;;;;;10.60;3.63;;;;;;;;;;4933181;29;20187;-87
2022/04/13 10:10:33;;;;;;;8.53;3.97;;;;;;;;;;4941800;29;20201;-87
2022/04/13 10:13:40;;;;;;;5.37;3.77;;;;;;;;;;4940778;29;20193;-86
2022/04/13 10:16:44;;;;;;;4.87;3.67;;;;;;;;;;4954974;29;20183;-87
2022/04/13 10:19:54;;;;;;;6.67;3.70;;;;;;;;;;4932998;29;20648;-86
2022/04/13 10:23:00;;;;;;;4.90;3.63;;;;;;;;;;4946332;29;20226;-86
2022/04/13 10:26:10;;;;;;;4.20;3.40;;;;;;;;;;4932460;29;20181;-86
2022/04/13 10:29:17;;;;;;;8.87;4.27;;;;;;;;;;4932582;29;20193;-87
2022/04/13 10:32:25;;;;;;;3.97;3.33;;;;;;;;;;4922457;29;20226;-86
2022/04/13 10:35:31;;;;;;;6.73;4.00;;;;;;;;;;4934264;29;20523;-86
2022/04/13 10:38:35;;;;;;;6.73;3.30;;;;;;;;;;4932119;29;20206;-86
2022/04/13 10:41:40;;;;;;;5.00;3.57;;;;;;;;;;4933658;29;20218;-86
2022/04/13 10:44:52;;;;;;;9.13;3.33;;;;;;;;;;4931988;29;20210;-86
2022/04/13 10:48:05;;;;;;;6.13;3.80;;;;;;;;;;4932843;29;20188;-86
2022/04/13 10:51:13;;;;;;;6.80;4.47;;;;;;;;;;4943574;28;20189;-86
2022/04/13 10:54:18;;;;;;;10.87;3.80;;;;;;;;;;4943359;29;20672;-86
2022/04/13 10:57:29;;;;;;;5.53;3.93;;;;;;;;;;4935462;29;20195;-87
2022/04/13 11:00:35;;;;;;;6.47;4.10;;;;;;;;;;4938472;29;20192;-86
2022/04/13 11:03:40;;;;;;;8.93;4.10;;;;;;;;;;4962998;29;20210;-86
2022/04/13 11:06:46;;;;;;;5.07;3.77;;;;;;;;;;4939624;29;20670;-87
2022/04/13 11:09:56;;;;;;;6.00;3.90;;;;;;;;;;4936223;29;20201;-86
2022/04/13 11:13:00;;;;;;;10.82;3.90;;;;;;;;;;4946973;29;20217;-87
2022/04/13 11:16:17;;;;;;;4.50;3.88;;;;;;;;;;4947254;29;20187;-86
2022/04/13 11:19:21;;;;;;;4.22;3.65;;;;;;;;;;4935688;29;20655;-86
2022/04/13 11:22:34;;;;;;;6.55;3.78;;;;;;;;;;4919395;29;20699;-86
2022/04/13 11:25:44;;;;;;;6.00;3.80;;;;;;;;;;4939938;29;20190;-85
2022/04/13 11:29:18;;;;;;;4.83;3.83;;;;;;;;;;4941871;29;20198;-86
2022/04/13 11:32:35;;;;;;;7.47;3.50;;;;;;;;;;4941152;29;20217;-84
2022/04/13 11:35:45;;;;;;;6.70;3.97;;;;;;;;;;4928251;29;20634;-86
2022/04/13 11:38:51;;;;;;;8.83;3.97;;;;;;;;;;4917308;29;20181;-86
2022/04/13 11:41:55;;;;;;;12.57;4.00;;;;;;;;;;4927612;29;20221;-86
2022/04/13 11:45:03;;;;;;;8.67;3.43;;;;;;;;;;4927644;29;20219;-86
2022/04/13 11:48:08;;;;;;;4.90;3.90;;;;;;;;;;4932271;29;20204;-86
2022/04/13 11:51:34;;;;;;;7.30;3.80;;;;;;;;;;4942236;29;20208;-87
2022/04/13 11:54:46;;;;;;;7.97;4.30;;;;;;;;;;4929881;29;20182;-87
2022/04/13 11:58:08;;;;;;;6.43;3.70;;;;;;;;;;4927232;29;20196;-86
2022/04/13 12:01:12;;;;;;;8.20;3.87;;;;;;;;;;4927255;29;20187;-86
2022/04/13 12:04:21;;;;;;;7.63;4.30;;;;;;;;;;4927453;29;20245;-86
2022/04/13 12:07:28;;;;;;;6.57;4.27;;;;;;;;;;4926939;29;20189;-86
2022/04/13 12:10:36;;;;;;;5.67;4.40;;;;;;;;;;4927541;29;20177;-86
2022/04/13 12:14:08;;;;;;;6.73;3.83;;;;;;;;;;4927493;29;20189;-86
2022/04/13 12:17:14;;;;;;;6.43;4.00;;;;;;;;;;4927235;29;20191;-86
2022/04/13 12:20:31;;;;;;;5.37;3.37;;;;;;;;;;4948975;29;20206;-86
2022/04/13 12:23:37;;;;;;;6.17;3.80;;;;;;;;;;4933985;29;20204;-85
2022/04/13 12:26:47;;;;;;;6.23;3.70;;;;;;;;;;4930751;29;20188;-86
2022/04/13 12:29:51;;;;;;;3.80;3.10;;;;;;;;;;4934983;29;20185;-86
2022/04/13 12:32:55;;;;;;;6.40;4.10;;;;;;;;;;4934592;29;20222;-86
2022/04/13 12:36:00;;;;;;;15.70;3.73;;;;;;;;;;4926377;29;20200;-86
2022/04/13 12:39:09;;;;;;;6.20;4.10;;;;;;;;;;4931176;29;20200;-85
2022/04/13 12:42:22;;;;;;;7.07;3.47;;;;;;;;;;4935322;29;20686;-85
2022/04/13 12:45:30;;;;;;;5.10;3.50;;;;;;;;;;4934782;29;20215;-86
2022/04/13 12:48:34;;;;;;;7.57;4.20;;;;;;;;;;4934905;29;20567;-85
2022/04/13 12:51:38;;;;;;;5.47;3.90;;;;;;;;;;4944058;29;20561;-85
2022/04/13 12:54:43;;;;;;;6.63;3.77;;;;;;;;;;4934681;29;20194;-86
2022/04/13 12:57:47;;;;;;;4.63;3.33;;;;;;;;;;4945068;29;20197;-85
2022/04/13 13:00:54;;;;;;;7.57;3.70;;;;;;;;;;4935274;29;20186;-85
2022/04/13 13:04:08;;;;;;;9.63;4.57;;;;;;;;;;5011871;23;20240;-86
2022/04/13 13:07:12;;;;;;;5.80;3.50;;;;;;;;;;4984688;28;20187;-84
2022/04/13 13:10:16;;;;;;;7.40;3.47;;;;;;;;;;4973114;28;20185;-83
2022/04/13 13:13:22;;;;;;;6.13;3.57;;;;;;;;;;4984465;28;20217;-84
2022/04/13 13:16:34;;;;;;;8.63;4.10;;;;;;;;;;4996927;28;20172;-83
2022/04/13 13:19:38;;;;;;;9.50;3.87;;;;;;;;;;4972300;28;20630;-83
2022/04/13 13:22:50;;;;;;;6.43;3.70;;;;;;;;;;4995447;28;20221;-86
2022/04/13 13:25:57;;;;;;;7.17;4.30;;;;;;;;;;4995005;28;20211;-86
2022/04/13 13:29:03;;;;;;;9.03;4.50;;;;;;;;;;4984333;28;20206;-86
2022/04/13 13:32:12;;;;;;;6.83;4.40;;;;;;;;;;4984207;28;20226;-86
2022/04/13 13:35:19;;;;;;;5.50;4.10;;;;;;;;;;5008892;28;20643;-86
2022/04/13 13:38:24;;;;;;;7.30;4.47;;;;;;;;;;4998315;28;20182;-86
2022/04/13 13:41:29;;;;;;;6.73;3.80;;;;;;;;;;4973163;28;20186;-85
2022/04/13 13:44:33;;;;;;;9.13;3.70;;;;;;;;;;4990360;28;20650;-84
2022/04/13 13:47:37;;;;;;;7.67;4.10;;;;;;;;;;4984951;28;20191;-86
2022/04/13 13:50:43;;;;;;;11.07;4.97;;;;;;;;;;4995887;28;20655;-87
2022/04/13 13:53:50;;;;;;;7.90;4.37;;;;;;;;;;4953060;28;20231;-86
2022/04/13 13:56:54;;;;;;;7.20;4.20;;;;;;;;;;4964109;28;20179;-86
2022/04/13 13:59:58;;;;;;;7.00;4.23;;;;;;;;;;4963497;28;20204;-87
2022/04/13 14:03:04;;;;;;;9.17;4.17;;;;;;;;;;4974456;28;20227;-87
2022/04/13 14:06:11;;;;;;;7.13;4.20;;;;;;;;;;4963557;28;20211;-86
2022/04/13 14:09:15;;;;;;;9.20;4.33;;;;;;;;;;4966776;28;20534;-86
2022/04/13 14:12:20;;;;;;;7.07;5.03;;;;;;;;;;4974672;28;20220;-85
2022/04/13 14:15:25;;;;;;;9.13;4.83;;;;;;;;;;4963482;28;20200;-85
2022/04/13 14:18:29;;;;;;;9.50;4.93;;;;;;;;;;4963812;28;20184;-85
2022/04/13 14:21:34;;;;;;;8.77;4.43;;;;;;;;;;4963717;28;20185;-86
2022/04/13 14:24:38;;;;;;;6.97;4.63;;;;;;;;;;4964067;28;20205;-84
2022/04/13 14:27:42;;;;;;;6.60;4.57;;;;;;;;;;4963343;28;20644;-87
2022/04/13 14:30:46;;;;;;;6.10;4.63;;;;;;;;;;4963117;28;20182;-85
2022/04/13 14:33:51;;;;;;;6.33;4.20;;;;;;;;;;4963464;28;20218;-88
2022/04/13 14:36:56;;;;;;;8.47;3.97;;;;;;;;;;4964988;28;20185;-85
2022/04/13 14:40:00;;;;;;;8.87;4.47;;;;;;;;;;4963900;28;20523;-87
2022/04/13 14:43:07;;;;;;;6.83;4.53;;;;;;;;;;4964345;28;20214;-88
2022/04/13 14:46:11;;;;;;;15.93;4.63;;;;;;;;;;4964414;28;20205;-84
2022/04/13 14:49:16;;;;;;;8.10;5.20;;;;;;;;;;4964482;28;20184;-87
2022/04/13 14:52:21;;;;;;;11.07;5.10;;;;;;;;;;4964536;28;20218;-84
2022/04/13 14:55:25;;;;;;;16.97;7.17;;;;;;;;;;4963779;28;20274;-84
2022/04/13 14:58:29;;;;;;;9.60;4.83;;;;;;;;;;4963262;28;20199;-87
2022/04/13 15:01:33;;;;;;;8.67;5.07;;;;;;;;;;4964444;28;20515;-87
2022/04/13 15:04:37;;;;;;;9.33;4.57;;;;;;;;;;4974231;28;20646;-87
2022/04/13 15:07:46;;;;;;;8.70;5.17;;;;;;;;;;4963408;28;20192;-87
2022/04/13 15:10:50;;;;;;;10.70;4.63;;;;;;;;;;4974274;28;20183;-86
2022/04/13 15:13:54;;;;;;;13.67;5.27;;;;;;;;;;4963942;28;20225;-86
2022/04/13 15:16:58;;;;;;;8.27;4.77;;;;;;;;;;4974952;28;20549;-84
2022/04/13 15:20:02;;;;;;;9.17;5.67;;;;;;;;;;4963788;28;20187;-86
2022/04/13 15:23:06;;;;;;;8.97;4.97;;;;;;;;;;4963395;28;20236;-86
2022/04/13 15:26:12;;;;;;;9.00;5.27;;;;;;;;;;4963459;28;20207;-85
2022/04/13 15:29:16;;;;;;;9.73;5.60;;;;;;;;;;4974004;28;20183;-85
2022/04/13 15:32:21;;;;;;;8.50;5.03;;;;;;;;;;4962491;28;20222;-85
2022/04/13 15:35:25;;;;;;;9.37;6.10;;;;;;;;;;4974807;28;20175;-86
2022/04/13 15:38:30;;;;;;;9.20;5.50;;;;;;;;;;4962797;28;20206;-85
2022/04/13 15:41:34;;;;;;;13.47;5.70;;;;;;;;;;4964119;28;20206;-86
2022/04/13 15:44:38;;;;;;;12.87;5.73;;;;;;;;;;4976667;28;20209;-85
2022/04/13 15:47:43;;;;;;;9.97;5.63;;;;;;;;;;4976771;28;20219;-86
2022/04/13 15:50:50;;;;;;;13.87;6.13;;;;;;;;;;4977194;28;20179;-86
2022/04/13 15:53:54;;;;;;;10.53;5.63;;;;;;;;;;4983884;28;20225;-86
2022/04/13 15:56:58;;;;;;;10.00;6.03;;;;;;;;;;5005710;28;20182;-86
2022/04/13 16:00:04;;;;;;;12.13;6.47;;;;;;;;;;4972414;28;20574;-85
2022/04/13 16:03:16;;;;;;;11.40;6.57;;;;;;;;;;4984764;28;20260;-86
2022/04/13 16:06:21;;;;;;;11.93;6.87;;;;;;;;;;4995165;28;20225;-86
2022/04/13 16:09:25;;;;;;;14.67;6.50;;;;;;;;;;4987753;28;20205;-85
2022/04/13 16:12:29;;;;;;;12.47;6.80;;;;;;;;;;4980679;28;20755;-86
2022/04/13 16:15:34;;;;;;;22.90;7.50;;;;;;;;;;4976515;28;20201;-85
2022/04/13 16:18:38;;;;;;;14.53;6.60;;;;;;;;;;4983739;28;20178;-86
2022/04/13 16:21:42;;;;;;;16.40;7.50;;;;;;;;;;4970726;28;20190;-85
2022/04/13 16:24:47;;;;;;;15.97;7.17;;;;;;;;;;4968519;28;21561;-84
2022/04/13 16:27:52;;;;;;;14.90;7.20;;;;;;;;;;4995163;28;20576;-85
2022/04/13 16:30:56;;;;;;;11.57;7.27;;;;;;;;;;4966465;28;20196;-85
2022/04/13 16:34:01;;;;;;;13.40;6.53;;;;;;;;;;4976484;28;20234;-86
2022/04/13 16:37:05;;;;;;;11.87;6.93;;;;;;;;;;4970447;28;20209;-86
2022/04/13 16:40:10;;;;;;;17.63;7.57;;;;;;;;;;4998680;28;20209;-86
2022/04/13 16:43:19;;;;;;;15.30;7.60;;;;;;;;;;4966240;28;20229;-85
2022/04/13 16:46:23;;;;;;;13.23;7.13;;;;;;;;;;4965797;28;20207;-86
2022/04/13 16:49:27;;;;;;;28.17;7.80;;;;;;;;;;4966681;28;20203;-85
2022/04/13 16:52:33;;;;;;;17.57;6.63;;;;;;;;;;4976527;28;20716;-85
2022/04/13 16:55:36;;;;;;;13.07;7.17;;;;;;;;;;4965199;28;20653;-86
2022/04/13 16:58:40;;;;;;;12.13;6.30;;;;;;;;;;4965544;28;20187;-85
2022/04/13 17:01:45;;;;;;;9.90;6.47;;;;;;;;;;4965266;28;20209;-85
2022/04/13 17:04:49;;;;;;;9.87;6.10;;;;;;;;;;4965816;28;20179;-85
2022/04/13 17:07:53;;;;;;;18.53;6.50;;;;;;;;;;4965489;28;20170;-85
2022/04/13 17:10:57;;;;;;;15.00;7.10;;;;;;;;;;4976269;28;20665;-85
2022/04/13 17:14:02;;;;;;;23.70;7.10;;;;;;;;;;4965073;28;20226;-86
2022/04/13 17:17:06;;;;;;;14.03;7.73;;;;;;;;;;4965291;28;20186;-85
2022/04/13 17:20:11;;;;;;;16.77;6.67;;;;;;;;;;4965175;28;20676;-85
2022/04/13 17:23:16;;;;;;;27.97;6.87;;;;;;;;;;4964441;28;20225;-85
2022/04/13 17:26:20;;;;;;;18.30;6.40;;;;;;;;;;4964413;28;20222;-85
2022/04/13 17:29:24;;;;;;;15.70;6.50;;;;;;;;;;4964403;28;20210;-85
2022/04/13 17:32:30;;;;;;;19.23;6.70;;;;;;;;;;4964594;28;20225;-85
2022/04/13 17:35:35;;;;;;;18.20;6.27;;;;;;;;;;4964679;28;20190;-85
2022/04/13 17:38:39;;;;;;;11.53;5.70;;;;;;;;;;4964694;28;20662;-85
2022/04/13 17:41:44;;;;;;;16.43;6.97;;;;;;;;;;4953800;28;20223;-85
2022/04/13 17:44:48;;;;;;;12.77;5.67;;;;;;;;;;4966016;28;20186;-85
2022/04/13 17:47:52;;;;;;;15.60;7.17;;;;;;;;;;4964270;28;20542;-85
2022/04/13 17:50:57;;;;;;;11.33;6.70;;;;;;;;;;4975577;28;20213;-85
2022/04/13 17:54:03;;;;;;;9.53;6.20;;;;;;;;;;4964283;28;20226;-85
2022/04/13 17:57:07;;;;;;;14.20;6.97;;;;;;;;;;4975092;28;20171;-85
2022/04/13 18:00:11;;;;;;;12.50;6.33;;;;;;;;;;4964340;28;20546;-85
2022/04/13 18:03:16;;;;;;;12.13;6.33;;;;;;;;;;4963705;28;20237;-85
2022/04/13 18:06:20;;;;;;;14.00;5.83;;;;;;;;;;4974183;28;20716;-86
2022/04/13 18:09:25;;;;;;;7.50;5.47;;;;;;;;;;4963810;28;20206;-85
2022/04/13 18:12:29;;;;;;;11.07;5.90;;;;;;;;;;4963776;28;20218;-85
2022/04/13 18:15:36;;;;;;;11.13;4.90;;;;;;;;;;4975454;28;20550;-85
2022/04/13 18:18:40;;;;;;;7.63;5.10;;;;;;;;;;4967828;28;20182;-86
2022/04/13 18:21:44;;;;;;;11.10;5.50;;;;;;;;;;4982202;28;20668;-86
2022/04/13 18:24:50;;;;;;;9.47;5.30;;;;;;;;;;4966076;28;20186;-86
2022/04/13 18:27:54;;;;;;;7.40;4.90;;;;;;;;;;4971816;28;20507;-86
2022/04/13 18:30:58;;;;;;;8.37;5.30;;;;;;;;;;4968111;28;20190;-85